sensor_id;sensor_type;location;lat;lon;timestamp;pressure;altitude;pressure_sealevel;temperature;humidity
17373;BME280;8803;48.116;11.590;2023-12-04T00:00:58;95845.79;;;-2.13;100.00
17373;BME280;8803;48.116;11.590;2023-12-04T00:03:02;95842.91;;;-2.17;100.00
17373;BME280;8803;48.116;11.590;2023-12-04T00:07:23;95840.58;;;-2.13;100.00
17373;BME280;8803;48.116;11.590;2023-12-04T00:09:28;95844.47;;;-2.24;100.00
17373;BME280;8803;48.116;11.590;2023-12-04T00:11:33;95837.78;;;-2.20;100.00
17373;BME280;8803;48.116;11.590;2023-12-04T00:13:37;95834.39;;;-2.22;100.00
17373;BME280;8803;48.116;11.590;2023-12-04T00:17:55;95833.64;;;-2.14;100.00
17373;BME280;8803;48.116;11.590;2023-12-04T00:22:14;95821.91;;;-2.14;100.00
17373;BME280;8803;48.116;11.590;2023-12-04T00:24:18;95829.69;;;-2.24;100.00
17373;BME280;8803;48.116;11.590;2023-12-04T00:26:23;95833.58;;;-2.35;100.00
17373;BME280;8803;48.116;11.590;2023-12-04T00:30:41;95826.00;;;-2.30;100.00
17373;BME280;8803;48.116;11.590;2023-12-04T00:32:45;95818.28;;;-2.33;100.00
17373;BME280;8803;48.116;11.590;2023-12-04T00:34:50;95817.77;;;-2.31;100.00
17373;BME280;8803;48.116;11.590;2023-12-04T00:36:55;95814.34;;;-2.31;100.00
17373;BME280;8803;48.116;11.590;2023-12-04T00:38:59;95808.99;;;-2.28;100.00
17373;BME280;8803;48.116;11.590;2023-12-04T00:41:06;95813.12;;;-2.23;100.00
17373;BME280;8803;48.116;11.590;2023-12-04T00:43:10;95816.65;;;-2.24;100.00
17373;BME280;8803;48.116;11.590;2023-12-04T00:45:15;95813.53;;;-2.22;100.00
17373;BME280;8803;48.116;11.590;2023-12-04T00:47:19;95816.14;;;-2.22;100.00
17373;BME280;8803;48.116;11.590;2023-12-04T00:49:24;95820.05;;;-2.22;100.00
17373;BME280;8803;48.116;11.590;2023-12-04T00:51:31;95816.14;;;-2.22;100.00
17373;BME280;8803;48.116;11.590;2023-12-04T00:53:35;95819.16;;;-2.21;100.00
17373;BME280;8803;48.116;11.590;2023-12-04T00:55:40;95815.63;;;-2.20;100.00
17373;BME280;8803;48.116;11.590;2023-12-04T00:57:44;95812.12;;;-2.19;100.00
17373;BME280;8803;48.116;11.590;2023-12-04T00:59:49;95810.41;;;-2.20;100.00
17373;BME280;8803;48.116;11.590;2023-12-04T01:01:54;95813.53;;;-2.22;100.00
17373;BME280;8803;48.116;11.590;2023-12-04T01:03:58;95811.44;;;-2.24;100.00
17373;BME280;8803;48.116;11.590;2023-12-04T01:06:04;95806.16;;;-2.22;100.00
17373;BME280;8803;48.116;11.590;2023-12-04T01:08:08;95802.66;;;-2.21;100.00
17373;BME280;8803;48.116;11.590;2023-12-04T01:10:13;95796.06;;;-2.20;100.00
17373;BME280;8803;48.116;11.590;2023-12-04T01:12:18;95796.99;;;-2.21;100.00
17373;BME280;8803;48.116;11.590;2023-12-04T01:14:23;95783.20;;;-2.24;100.00
17373;BME280;8803;48.116;11.590;2023-12-04T01:16:27;95783.20;;;-2.24;100.00
17373;BME280;8803;48.116;11.590;2023-12-04T01:18:32;95786.59;;;-2.22;100.00
17373;BME280;8803;48.116;11.590;2023-12-04T01:20:37;95786.22;;;-2.23;100.00
17373;BME280;8803;48.116;11.590;2023-12-04T01:22:42;95784.05;;;-2.24;100.00
17373;BME280;8803;48.116;11.590;2023-12-04T01:24:46;95785.74;;;-2.23;100.00
17373;BME280;8803;48.116;11.590;2023-12-04T01:26:51;95789.62;;;-2.21;100.00
17373;BME280;8803;48.116;11.590;2023-12-04T01:31:09;95786.70;;;-2.14;100.00
17373;BME280;8803;48.116;11.590;2023-12-04T01:33:13;95783.03;;;-2.20;100.00
17373;BME280;8803;48.116;11.590;2023-12-04T01:35:18;95784.75;;;-2.19;100.00
17373;BME280;8803;48.116;11.590;2023-12-04T01:37:23;95782.59;;;-2.19;100.00
17373;BME280;8803;48.116;11.590;2023-12-04T01:39:27;95778.23;;;-2.19;100.00
17373;BME280;8803;48.116;11.590;2023-12-04T01:41:32;95774.35;;;-2.20;100.00
17373;BME280;8803;48.116;11.590;2023-12-04T01:43:37;95774.35;;;-2.20;100.00
17373;BME280;8803;48.116;11.590;2023-12-04T01:45:42;95772.60;;;-2.20;100.00
17373;BME280;8803;48.116;11.590;2023-12-04T01:47:48;95764.41;;;-2.21;100.00
17373;BME280;8803;48.116;11.590;2023-12-04T01:49:53;95765.23;;;-2.20;100.00
17373;BME280;8803;48.116;11.590;2023-12-04T01:51:58;95764.78;;;-2.20;100.00
17373;BME280;8803;48.116;11.590;2023-12-04T01:54:04;95756.58;;;-2.21;100.00
17373;BME280;8803;48.116;11.590;2023-12-04T01:56:11;95757.47;;;-2.22;100.00
17373;BME280;8803;48.116;11.590;2023-12-04T01:58:18;95748.34;;;-2.22;100.00
17373;BME280;8803;48.116;11.590;2023-12-04T02:00:23;95747.94;;;-2.23;100.00
17373;BME280;8803;48.116;11.590;2023-12-04T02:02:28;95748.00;;;-2.24;100.00
17373;BME280;8803;48.116;11.590;2023-12-04T02:04:33;95745.33;;;-2.23;100.00
17373;BME280;8803;48.116;11.590;2023-12-04T02:06:38;95738.95;;;-2.26;100.00
17373;BME280;8803;48.116;11.590;2023-12-04T02:08:45;95737.30;;;-2.28;100.00
17373;BME280;8803;48.116;11.590;2023-12-04T02:10:50;95723.92;;;-2.31;100.00
17373;BME280;8803;48.116;11.590;2023-12-04T02:12:55;95719.19;;;-2.31;100.00
17373;BME280;8803;48.116;11.590;2023-12-04T02:15:00;95712.60;;;-2.30;100.00
17373;BME280;8803;48.116;11.590;2023-12-04T02:17:06;95703.03;;;-2.29;100.00
17373;BME280;8803;48.116;11.590;2023-12-04T02:21:28;95686.13;;;-2.31;100.00
17373;BME280;8803;48.116;11.590;2023-12-04T02:23:33;95689.04;;;-2.38;100.00
17373;BME280;8803;48.116;11.590;2023-12-04T02:25:38;95688.12;;;-2.37;100.00
17373;BME280;8803;48.116;11.590;2023-12-04T02:29:59;95681.39;;;-2.31;100.00
17373;BME280;8803;48.116;11.590;2023-12-04T02:32:07;95692.88;;;-2.37;100.00
17373;BME280;8803;48.116;11.590;2023-12-04T02:34:14;95690.69;;;-2.36;100.00
17373;BME280;8803;48.116;11.590;2023-12-04T02:36:21;95689.83;;;-2.36;100.00
17373;BME280;8803;48.116;11.590;2023-12-04T02:38:28;95684.62;;;-2.36;100.00
17373;BME280;8803;48.116;11.590;2023-12-04T02:40:33;95682.01;;;-2.36;100.00
17373;BME280;8803;48.116;11.590;2023-12-04T02:42:38;95677.14;;;-2.34;100.00
17373;BME280;8803;48.116;11.590;2023-12-04T02:44:42;95680.53;;;-2.32;100.00
17373;BME280;8803;48.116;11.590;2023-12-04T02:46:47;95680.98;;;-2.32;100.00
17373;BME280;8803;48.116;11.590;2023-12-04T02:48:52;95682.80;;;-2.34;100.00
17373;BME280;8803;48.116;11.590;2023-12-04T02:50:57;95681.56;;;-2.36;100.00
17373;BME280;8803;48.116;11.590;2023-12-04T02:53:02;95683.24;;;-2.35;100.00
17373;BME280;8803;48.116;11.590;2023-12-04T02:55:08;95674.12;;;-2.35;100.00
17373;BME280;8803;48.116;11.590;2023-12-04T02:57:13;95676.69;;;-2.33;100.00
17373;BME280;8803;48.116;11.590;2023-12-04T02:59:18;95672.81;;;-2.35;100.00
17373;BME280;8803;48.116;11.590;2023-12-04T03:01:23;95683.20;;;-2.33;100.00
17373;BME280;8803;48.116;11.590;2023-12-04T03:03:27;95677.52;;;-2.33;100.00
17373;BME280;8803;48.116;11.590;2023-12-04T03:05:32;95668.02;;;-2.34;100.00
17373;BME280;8803;48.116;11.590;2023-12-04T03:07:36;95673.23;;;-2.34;100.00
17373;BME280;8803;48.116;11.590;2023-12-04T03:09:41;95655.42;;;-2.34;100.00
17373;BME280;8803;48.116;11.590;2023-12-04T03:11:46;95654.53;;;-2.33;100.00
17373;BME280;8803;48.116;11.590;2023-12-04T03:13:50;95649.80;;;-2.35;100.00
17373;BME280;8803;48.116;11.590;2023-12-04T03:15:55;95636.91;;;-2.38;100.00
17373;BME280;8803;48.116;11.590;2023-12-04T03:18:01;95637.88;;;-2.41;100.00
17373;BME280;8803;48.116;11.590;2023-12-04T04:00:55;95607.11;;;-2.86;100.00
17373;BME280;8803;48.116;11.590;2023-12-04T04:03:00;95605.02;;;-2.88;100.00
17373;BME280;8803;48.116;11.590;2023-12-04T04:05:06;95599.34;;;-2.88;100.00
17373;BME280;8803;48.116;11.590;2023-12-04T04:07:11;95599.81;;;-2.88;100.00
17373;BME280;8803;48.116;11.590;2023-12-04T04:09:16;95597.14;;;-2.87;100.00
17373;BME280;8803;48.116;11.590;2023-12-04T04:11:22;95601.39;;;-2.84;100.00
17373;BME280;8803;48.116;11.590;2023-12-04T04:13:27;95602.63;;;-2.83;100.00
17373;BME280;8803;48.116;11.590;2023-12-04T04:15:32;95595.67;;;-2.82;100.00
17373;BME280;8803;48.116;11.590;2023-12-04T04:17:36;95589.88;;;-2.79;100.00
17373;BME280;8803;48.116;11.590;2023-12-04T04:19:41;95588.19;;;-2.80;100.00
17373;BME280;8803;48.116;11.590;2023-12-04T04:23:59;95577.46;;;-2.72;100.00
17373;BME280;8803;48.116;11.590;2023-12-04T04:26:05;95581.55;;;-2.77;100.00
17373;BME280;8803;48.116;11.590;2023-12-04T04:28:10;95574.17;;;-2.77;100.00
17373;BME280;8803;48.116;11.590;2023-12-04T04:30:16;95572.87;;;-2.77;100.00
17373;BME280;8803;48.116;11.590;2023-12-04T04:34:34;95567.42;;;-2.71;100.00
17373;BME280;8803;48.116;11.590;2023-12-04T04:36:39;95568.14;;;-2.78;100.00
17373;BME280;8803;48.116;11.590;2023-12-04T04:38:44;95570.41;;;-2.80;100.00
17373;BME280;8803;48.116;11.590;2023-12-04T04:40:48;95576.17;;;-2.84;100.00
17373;BME280;8803;48.116;11.590;2023-12-04T04:42:53;95584.84;;;-2.83;100.00
17373;BME280;8803;48.116;11.590;2023-12-04T04:44:57;95583.16;;;-2.84;100.00
17373;BME280;8803;48.116;11.590;2023-12-04T04:47:02;95577.09;;;-2.85;100.00
17373;BME280;8803;48.116;11.590;2023-12-04T04:49:07;95580.59;;;-2.86;100.00
17373;BME280;8803;48.116;11.590;2023-12-04T04:51:12;95572.91;;;-2.89;100.00
17373;BME280;8803;48.116;11.590;2023-12-04T04:53:16;95575.69;;;-2.93;100.00
17373;BME280;8803;48.116;11.590;2023-12-04T04:55:21;95577.95;;;-2.96;100.00
17373;BME280;8803;48.116;11.590;2023-12-04T04:57:26;95576.27;;;-2.97;100.00
17373;BME280;8803;48.116;11.590;2023-12-04T04:59:31;95570.59;;;-2.96;100.00
17373;BME280;8803;48.116;11.590;2023-12-04T05:01:36;95563.70;;;-2.97;100.00
17373;BME280;8803;48.116;11.590;2023-12-04T05:03:40;95562.84;;;-2.98;100.00
17373;BME280;8803;48.116;11.590;2023-12-04T05:05:45;95559.01;;;-2.99;100.00
17373;BME280;8803;48.116;11.590;2023-12-04T05:07:50;95549.89;;;-2.99;100.00
17373;BME280;8803;48.116;11.590;2023-12-04T05:09:54;95547.29;;;-2.99;100.00
17373;BME280;8803;48.116;11.590;2023-12-04T05:11:59;95544.79;;;-3.02;100.00
17373;BME280;8803;48.116;11.590;2023-12-04T05:14:04;95539.58;;;-3.02;100.00
17373;BME280;8803;48.116;11.590;2023-12-04T05:16:10;95529.58;;;-3.01;100.00
17373;BME280;8803;48.116;11.590;2023-12-04T05:18:15;95531.77;;;-3.02;100.00
17373;BME280;8803;48.116;11.590;2023-12-04T05:20:20;95538.80;;;-3.04;100.00
17373;BME280;8803;48.116;11.590;2023-12-04T05:22:25;95532.80;;;-3.06;100.00
17373;BME280;8803;48.116;11.590;2023-12-04T05:24:29;95538.08;;;-3.08;100.00
17373;BME280;8803;48.116;11.590;2023-12-04T05:26:34;95533.83;;;-3.10;100.00
17373;BME280;8803;48.116;11.590;2023-12-04T05:28:40;95536.44;;;-3.10;100.00
17373;BME280;8803;48.116;11.590;2023-12-04T05:30:45;95534.28;;;-3.11;100.00
17373;BME280;8803;48.116;11.590;2023-12-04T05:32:49;95535.55;;;-3.09;100.00
17373;BME280;8803;48.116;11.590;2023-12-04T05:34:54;95535.58;;;-3.11;100.00
17373;BME280;8803;48.116;11.590;2023-12-04T05:36:59;95528.25;;;-3.11;100.00
17373;BME280;8803;48.116;11.590;2023-12-04T05:39:04;95527.39;;;-3.12;100.00
17373;BME280;8803;48.116;11.590;2023-12-04T05:41:08;95518.90;;;-3.17;100.00
17373;BME280;8803;48.116;11.590;2023-12-04T05:43:13;95520.71;;;-3.19;100.00
17373;BME280;8803;48.116;11.590;2023-12-04T05:45:18;95521.64;;;-3.20;100.00
17373;BME280;8803;48.116;11.590;2023-12-04T05:47:23;95522.16;;;-3.22;100.00
17373;BME280;8803;48.116;11.590;2023-12-04T05:49:28;95519.66;;;-3.25;100.00
17373;BME280;8803;48.116;11.590;2023-12-04T05:51:33;95530.00;;;-3.24;100.00
17373;BME280;8803;48.116;11.590;2023-12-04T05:53:38;95527.91;;;-3.26;100.00
17373;BME280;8803;48.116;11.590;2023-12-04T05:55:42;95524.86;;;-3.25;100.00
17373;BME280;8803;48.116;11.590;2023-12-04T05:57:49;95522.66;;;-3.24;100.00
17373;BME280;8803;48.116;11.590;2023-12-04T05:59:53;95517.39;;;-3.23;100.00
17373;BME280;8803;48.116;11.590;2023-12-04T06:01:58;95515.16;;;-3.22;100.00
17373;BME280;8803;48.116;11.590;2023-12-04T06:04:03;95516.88;;;-3.21;100.00
17373;BME280;8803;48.116;11.590;2023-12-04T06:06:09;95517.22;;;-3.18;100.00
17373;BME280;8803;48.116;11.590;2023-12-04T06:08:14;95523.25;;;-3.17;100.00
17373;BME280;8803;48.116;11.590;2023-12-04T06:10:19;95520.55;;;-3.14;100.00
17373;BME280;8803;48.116;11.590;2023-12-04T06:12:23;95513.59;;;-3.14;100.00
17373;BME280;8803;48.116;11.590;2023-12-04T06:14:28;95512.22;;;-3.12;100.00
17373;BME280;8803;48.116;11.590;2023-12-04T06:16:33;95498.75;;;-3.12;100.00
17373;BME280;8803;48.116;11.590;2023-12-04T06:18:38;95497.31;;;-3.09;100.00
17373;BME280;8803;48.116;11.590;2023-12-04T06:20:42;95496.42;;;-3.08;100.00
17373;BME280;8803;48.116;11.590;2023-12-04T06:22:49;95500.26;;;-3.06;100.00
17373;BME280;8803;48.116;11.590;2023-12-04T06:24:56;95498.58;;;-3.07;100.00
17373;BME280;8803;48.116;11.590;2023-12-04T06:27:02;95496.76;;;-3.05;100.00
17373;BME280;8803;48.116;11.590;2023-12-04T06:29:10;95499.74;;;-3.04;100.00
17373;BME280;8803;48.116;11.590;2023-12-04T06:31:18;95501.90;;;-3.04;100.00
17373;BME280;8803;48.116;11.590;2023-12-04T06:33:25;95491.89;;;-3.03;100.00
17373;BME280;8803;48.116;11.590;2023-12-04T06:35:32;95492.72;;;-3.02;100.00
17373;BME280;8803;48.116;11.590;2023-12-04T06:39:53;95483.17;;;-2.92;100.00
17373;BME280;8803;48.116;11.590;2023-12-04T06:44:15;95477.41;;;-2.88;100.00
17373;BME280;8803;48.116;11.590;2023-12-04T06:46:22;95473.27;;;-2.94;100.00
17373;BME280;8803;48.116;11.590;2023-12-04T06:48:30;95466.73;;;-2.92;100.00
17373;BME280;8803;48.116;11.590;2023-12-04T06:50:35;95460.22;;;-2.92;100.00
17373;BME280;8803;48.116;11.590;2023-12-04T06:52:40;95464.91;;;-2.90;100.00
17373;BME280;8803;48.116;11.590;2023-12-04T06:54:44;95464.39;;;-2.88;100.00
17373;BME280;8803;48.116;11.590;2023-12-04T06:56:49;95467.81;;;-2.88;100.00
17373;BME280;8803;48.116;11.590;2023-12-04T06:58:54;95469.53;;;-2.87;100.00
17373;BME280;8803;48.116;11.590;2023-12-04T07:00:59;95472.50;;;-2.86;100.00
17373;BME280;8803;48.116;11.590;2023-12-04T07:03:04;95463.35;;;-2.84;100.00
17373;BME280;8803;48.116;11.590;2023-12-04T07:05:09;95465.89;;;-2.83;100.00
17373;BME280;8803;48.116;11.590;2023-12-04T07:07:14;95465.81;;;-2.81;100.00
17373;BME280;8803;48.116;11.590;2023-12-04T07:09:18;95463.09;;;-2.78;100.00
17373;BME280;8803;48.116;11.590;2023-12-04T07:11:24;95452.61;;;-2.77;100.00
17373;BME280;8803;48.116;11.590;2023-12-04T07:13:28;95447.80;;;-2.76;100.00
17373;BME280;8803;48.116;11.590;2023-12-04T07:15:33;95453.31;;;-2.73;100.00
17373;BME280;8803;48.116;11.590;2023-12-04T07:19:54;95443.83;;;-2.64;100.00
17373;BME280;8803;48.116;11.590;2023-12-04T07:21:58;95448.33;;;-2.68;100.00
17373;BME280;8803;48.116;11.590;2023-12-04T07:24:04;95441.73;;;-2.66;100.00
17373;BME280;8803;48.116;11.590;2023-12-04T07:26:09;95437.39;;;-2.66;100.00
17373;BME280;8803;48.116;11.590;2023-12-04T07:28:13;95435.94;;;-2.63;100.00
17373;BME280;8803;48.116;11.590;2023-12-04T07:30:19;95430.69;;;-2.61;100.00
17373;BME280;8803;48.116;11.590;2023-12-04T07:32:24;95430.16;;;-2.59;100.00
17373;BME280;8803;48.116;11.590;2023-12-04T07:36:44;95417.98;;;-2.49;100.00
17373;BME280;8803;48.116;11.590;2023-12-04T07:38:49;95421.63;;;-2.53;100.00
17373;BME280;8803;48.116;11.590;2023-12-04T07:40:53;95409.42;;;-2.52;100.00
17373;BME280;8803;48.116;11.590;2023-12-04T07:42:58;95406.30;;;-2.50;100.00
17373;BME280;8803;48.116;11.590;2023-12-04T07:45:04;95402.34;;;-2.49;100.00
17373;BME280;8803;48.116;11.590;2023-12-04T07:47:09;95401.49;;;-2.49;100.00
17373;BME280;8803;48.116;11.590;2023-12-04T07:49:13;95401.04;;;-2.49;100.00
17373;BME280;8803;48.116;11.590;2023-12-04T07:51:18;95404.02;;;-2.48;100.00
17373;BME280;8803;48.116;11.590;2023-12-04T07:53:23;95407.81;;;-2.45;100.00
17373;BME280;8803;48.116;11.590;2023-12-04T07:55:28;95410.34;;;-2.43;100.00
17373;BME280;8803;48.116;11.590;2023-12-04T07:57:33;95401.22;;;-2.43;100.00
17373;BME280;8803;48.116;11.590;2023-12-04T07:59:37;95398.09;;;-2.41;100.00
17373;BME280;8803;48.116;11.590;2023-12-04T08:01:42;95393.85;;;-2.44;100.00
17373;BME280;8803;48.116;11.590;2023-12-04T08:03:47;95399.55;;;-2.44;100.00
17373;BME280;8803;48.116;11.590;2023-12-04T08:05:52;95407.81;;;-2.45;100.00
17373;BME280;8803;48.116;11.590;2023-12-04T08:07:57;95409.48;;;-2.44;100.00
17373;BME280;8803;48.116;11.590;2023-12-04T08:10:02;95415.03;;;-2.41;100.00
17373;BME280;8803;48.116;11.590;2023-12-04T08:12:08;95423.25;;;-2.40;100.00
17373;BME280;8803;48.116;11.590;2023-12-04T08:14:13;95420.13;;;-2.38;100.00
17373;BME280;8803;48.116;11.590;2023-12-04T08:18:32;95415.67;;;-2.26;100.00
17373;BME280;8803;48.116;11.590;2023-12-04T08:20:37;95419.66;;;-2.27;100.00
17373;BME280;8803;48.116;11.590;2023-12-04T08:22:42;95415.15;;;-2.24;100.00
17373;BME280;8803;48.116;11.590;2023-12-04T08:24:48;95415.41;;;-2.20;100.00
17373;BME280;8803;48.116;11.590;2023-12-04T08:26:52;95402.34;;;-2.10;100.00
17373;BME280;8803;48.116;11.590;2023-12-04T08:28:57;95402.34;;;-2.10;100.00
17373;BME280;8803;48.116;11.590;2023-12-04T08:33:15;95389.39;;;-1.93;100.00
17373;BME280;8803;48.116;11.590;2023-12-04T08:35:19;95382.95;;;-1.94;100.00
17373;BME280;8803;48.116;11.590;2023-12-04T08:37:25;95380.51;;;-1.89;100.00
17373;BME280;8803;48.116;11.590;2023-12-04T08:39:29;95381.23;;;-1.85;100.00
17373;BME280;8803;48.116;11.590;2023-12-04T08:41:34;95382.78;;;-1.81;100.00
17373;BME280;8803;48.116;11.590;2023-12-04T08:43:39;95393.47;;;-1.77;100.00
17373;BME280;8803;48.116;11.590;2023-12-04T08:47:57;95386.69;;;-1.63;100.00
17373;BME280;8803;48.116;11.590;2023-12-04T08:50:02;95390.73;;;-1.66;100.00
17373;BME280;8803;48.116;11.590;2023-12-04T08:52:07;95393.21;;;-1.63;100.00
17373;BME280;8803;48.116;11.590;2023-12-04T08:54:12;95388.31;;;-1.60;100.00
17373;BME280;8803;48.116;11.590;2023-12-04T08:56:16;95389.91;;;-1.57;100.00
17373;BME280;8803;48.116;11.590;2023-12-04T08:58:21;95394.59;;;-1.55;100.00
17373;BME280;8803;48.116;11.590;2023-12-04T09:02:59;95388.83;;;-1.43;100.00
17373;BME280;8803;48.116;11.590;2023-12-04T09:05:06;95390.88;;;-1.50;100.00
17373;BME280;8803;48.116;11.590;2023-12-04T09:07:11;95389.89;;;-1.47;100.00
17373;BME280;8803;48.116;11.590;2023-12-04T09:11:28;95391.14;;;-1.37;100.00
17373;BME280;8803;48.116;11.590;2023-12-04T09:13:33;95386.83;;;-1.38;100.00
17373;BME280;8803;48.116;11.590;2023-12-04T09:15:38;95375.39;;;-1.36;100.00
17373;BME280;8803;48.116;11.590;2023-12-04T09:17:42;95375.87;;;-1.28;100.00
17373;BME280;8803;48.116;11.590;2023-12-04T09:19:47;95376.11;;;-1.24;100.00
17373;BME280;8803;48.116;11.590;2023-12-04T09:21:52;95382.05;;;-1.20;100.00
17373;BME280;8803;48.116;11.590;2023-12-04T09:23:57;95382.05;;;-1.20;100.00
17373;BME280;8803;48.116;11.590;2023-12-04T09:28:15;95369.92;;;-1.04;100.00
17373;BME280;8803;48.116;11.590;2023-12-04T09:30:19;95360.02;;;-1.06;100.00
17373;BME280;8803;48.116;11.590;2023-12-04T09:32:24;95364.56;;;-1.01;100.00
17373;BME280;8803;48.116;11.590;2023-12-04T09:34:29;95375.84;;;-0.92;100.00
17373;BME280;8803;48.116;11.590;2023-12-04T09:36:34;95370.61;;;-0.92;100.00
17373;BME280;8803;48.116;11.590;2023-12-04T09:38:38;95370.61;;;-0.92;100.00
17373;BME280;8803;48.116;11.590;2023-12-04T09:40:43;95381.30;;;-0.80;100.00
17373;BME280;8803;48.116;11.590;2023-12-04T09:42:49;95381.30;;;-0.80;100.00
17373;BME280;8803;48.116;11.590;2023-12-04T09:44:54;95382.25;;;-0.72;100.00
17373;BME280;8803;48.116;11.590;2023-12-04T09:46:59;95382.39;;;-0.66;100.00
17373;BME280;8803;48.116;11.590;2023-12-04T09:49:05;95374.69;;;-0.61;100.00
17373;BME280;8803;48.116;11.590;2023-12-04T09:51:11;95374.69;;;-0.61;100.00
17373;BME280;8803;48.116;11.590;2023-12-04T09:55:29;95369.22;;;-0.48;100.00
17373;BME280;8803;48.116;11.590;2023-12-04T09:57:35;95368.98;;;-0.43;100.00
17373;BME280;8803;48.116;11.590;2023-12-04T09:59:40;95368.98;;;-0.43;100.00
17373;BME280;8803;48.116;11.590;2023-12-04T10:03:59;95346.61;;;-0.32;100.00
17373;BME280;8803;48.116;11.590;2023-12-04T10:06:07;95346.61;;;-0.32;100.00
17373;BME280;8803;48.116;11.590;2023-12-04T10:08:12;95333.98;;;-0.32;100.00
17373;BME280;8803;48.116;11.590;2023-12-04T10:10:17;95333.66;;;-0.26;100.00
17373;BME280;8803;48.116;11.590;2023-12-04T10:12:22;95325.91;;;-0.28;100.00
17373;BME280;8803;48.116;11.590;2023-12-04T10:14:27;95325.91;;;-0.28;100.00
17373;BME280;8803;48.116;11.590;2023-12-04T10:16:35;95326.43;;;-0.21;100.00
17373;BME280;8803;48.116;11.590;2023-12-04T10:18:41;95319.08;;;-0.15;100.00
17373;BME280;8803;48.116;11.590;2023-12-04T10:20:52;95319.08;;;-0.15;100.00
17373;BME280;8803;48.116;11.590;2023-12-04T10:22:59;95320.23;;;-0.12;100.00
17373;BME280;8803;48.116;11.590;2023-12-04T10:25:14;95320.30;;;-0.05;100.00
17373;BME280;8803;48.116;11.590;2023-12-04T10:27:19;95304.81;;;-0.01;100.00
17373;BME280;8803;48.116;11.590;2023-12-04T10:29:39;95297.08;;;0.05;100.00
17373;BME280;8803;48.116;11.590;2023-12-04T10:31:36;95304.23;;;0.10;100.00
17373;BME280;8803;48.116;11.590;2023-12-04T10:33:42;95292.27;;;0.13;100.00
17373;BME280;8803;48.116;11.590;2023-12-04T10:35:47;95292.23;;;0.22;100.00
17373;BME280;8803;48.116;11.590;2023-12-04T10:37:55;95281.41;;;0.28;100.00
17373;BME280;8803;48.116;11.590;2023-12-04T10:40:01;95279.70;;;0.35;100.00
17373;BME280;8803;48.116;11.590;2023-12-04T10:42:08;95283.37;;;0.40;100.00
17373;BME280;8803;48.116;11.590;2023-12-04T10:46:31;95276.79;;;0.55;100.00
17373;BME280;8803;48.116;11.590;2023-12-04T10:48:37;95276.89;;;0.54;100.00
17373;BME280;8803;48.116;11.590;2023-12-04T10:50:43;95281.87;;;0.58;100.00
17373;BME280;8803;48.116;11.590;2023-12-04T10:52:49;95280.77;;;0.62;100.00
17373;BME280;8803;48.116;11.590;2023-12-04T10:54:55;95280.95;;;0.66;100.00
17373;BME280;8803;48.116;11.590;2023-12-04T10:57:03;95267.97;;;0.72;100.00
17373;BME280;8803;48.116;11.590;2023-12-04T10:59:11;95272.09;;;0.76;100.00
17373;BME280;8803;48.116;11.590;2023-12-04T11:01:16;95259.59;;;0.81;100.00
17373;BME280;8803;48.116;11.590;2023-12-04T11:03:25;95262.41;;;0.85;99.94
17373;BME280;8803;48.116;11.590;2023-12-04T11:05:30;95271.41;;;0.88;98.97
17373;BME280;8803;48.116;11.590;2023-12-04T11:07:37;95263.35;;;0.91;98.38
17373;BME280;8803;48.116;11.590;2023-12-04T11:11:59;95250.58;;;1.01;96.85
17373;BME280;8803;48.116;11.590;2023-12-04T11:16:26;95242.05;;;1.04;96.75
17373;BME280;8803;48.116;11.590;2023-12-04T11:20:48;95241.59;;;1.05;95.05
17373;BME280;8803;48.116;11.590;2023-12-04T11:22:55;95234.56;;;0.98;95.04
17373;BME280;8803;48.116;11.590;2023-12-04T11:25:00;95227.05;;;0.99;94.18
17373;BME280;8803;48.116;11.590;2023-12-04T11:27:08;95220.44;;;1.01;93.95
17373;BME280;8803;48.116;11.590;2023-12-04T11:29:18;95213.95;;;0.99;94.12
17373;BME280;8803;48.116;11.590;2023-12-04T11:31:23;95205.63;;;1.00;93.10
17373;BME280;8803;48.116;11.590;2023-12-04T11:33:28;95198.98;;;1.01;92.19
17373;BME280;8803;48.116;11.590;2023-12-04T11:35:35;95193.57;;;1.04;91.80
17373;BME280;8803;48.116;11.590;2023-12-04T11:37:40;95193.57;;;1.04;91.80
17373;BME280;8803;48.116;11.590;2023-12-04T11:39:49;95190.95;;;1.04;91.99
17373;BME280;8803;48.116;11.590;2023-12-04T11:41:53;95193.11;;;1.05;91.58
17373;BME280;8803;48.116;11.590;2023-12-04T11:46:13;95183.56;;;1.11;90.94
17373;BME280;8803;48.116;11.590;2023-12-04T11:48:23;95175.97;;;1.06;91.41
17373;BME280;8803;48.116;11.590;2023-12-04T11:50:28;95175.97;;;1.06;91.41
17373;BME280;8803;48.116;11.590;2023-12-04T11:52:36;95168.57;;;1.06;91.62
17373;BME280;8803;48.116;11.590;2023-12-04T11:54:58;95177.18;;;1.08;91.30
17373;BME280;8803;48.116;11.590;2023-12-04T11:57:23;95178.03;;;1.08;91.02
17373;BME280;8803;48.116;11.590;2023-12-04T11:59:29;95179.24;;;1.10;90.78
17373;BME280;8803;48.116;11.590;2023-12-04T12:03:52;95180.56;;;1.17;91.82
17373;BME280;8803;48.116;11.590;2023-12-04T12:05:57;95188.70;;;1.12;91.36
17373;BME280;8803;48.116;11.590;2023-12-04T12:08:03;95192.27;;;1.11;91.27
17373;BME280;8803;48.116;11.590;2023-12-04T12:10:09;95192.27;;;1.11;91.27
17373;BME280;8803;48.116;11.590;2023-12-04T12:12:14;95195.84;;;1.17;89.70
17373;BME280;8803;48.116;11.590;2023-12-04T12:14:21;95191.45;;;1.18;90.45
17373;BME280;8803;48.116;11.590;2023-12-04T12:16:26;95189.57;;;1.20;90.78
17373;BME280;8803;48.116;11.590;2023-12-04T12:18:30;95189.83;;;1.22;90.32
17373;BME280;8803;48.116;11.590;2023-12-04T12:20:38;95188.34;;;1.25;90.27
17373;BME280;8803;48.116;11.590;2023-12-04T12:24:56;95177.20;;;1.36;90.39
17373;BME280;8803;48.116;11.590;2023-12-04T12:27:00;95176.63;;;1.31;89.86
17373;BME280;8803;48.116;11.590;2023-12-04T12:29:05;95176.91;;;1.33;89.30
17373;BME280;8803;48.116;11.590;2023-12-04T12:31:10;95177.30;;;1.34;89.24
17373;BME280;8803;48.116;11.590;2023-12-04T12:33:16;95187.23;;;1.36;90.82
17373;BME280;8803;48.116;11.590;2023-12-04T12:35:22;95188.80;;;1.39;89.79
17373;BME280;8803;48.116;11.590;2023-12-04T12:37:29;95182.53;;;1.41;89.16
17373;BME280;8803;48.116;11.590;2023-12-04T12:39:34;95183.37;;;1.42;88.97
17373;BME280;8803;48.116;11.590;2023-12-04T12:41:39;95175.90;;;1.43;88.87